createdAt,value
2019-05-11T00:00:19.574Z,1.15
2019-05-11T00:02:48.372Z,1.07
2019-05-11T00:05:18.383Z,1.00
2019-05-11T00:07:47.174Z,1.90
2019-05-11T00:10:16.181Z,1.50
2019-05-11T00:12:45.041Z,1.80
2019-05-11T00:15:14.210Z,1.70
2019-05-11T00:17:43.001Z,1.50
2019-05-11T00:20:12.267Z,0.98
2019-05-11T00:22:41.129Z,1.45
2019-05-11T00:25:10.200Z,1.20
2019-05-11T00:27:38.969Z,1.50
2019-05-11T00:30:08.705Z,1.50
2019-05-11T00:32:37.493Z,1.30
2019-05-11T00:35:07.892Z,1.60
2019-05-11T00:37:36.733Z,1.77
2019-05-11T00:40:14.235Z,1.75
2019-05-11T00:42:37.450Z,1.37
2019-05-11T00:45:07.343Z,1.85
2019-05-11T00:47:36.084Z,1.70
2019-05-11T00:50:07.396Z,1.67
2019-05-11T00:52:36.111Z,1.62
2019-05-11T00:55:06.852Z,1.52
2019-05-11T00:57:35.606Z,1.65
2019-05-11T01:00:08.346Z,1.85
2019-05-11T01:02:37.090Z,1.10
2019-05-11T01:05:07.119Z,0.80
2019-05-11T01:07:35.864Z,0.80
2019-05-11T01:10:22.950Z,1.10
2019-05-11T01:15:07.627Z,1.50
2019-05-11T01:17:36.401Z,1.85
2019-05-11T01:20:08.078Z,1.20
2019-05-11T01:22:36.882Z,1.60
2019-05-11T01:25:06.765Z,2.12
2019-05-11T01:27:35.609Z,1.10
2019-05-11T01:30:05.718Z,1.67
2019-05-11T01:32:34.495Z,1.75
2019-05-11T01:35:03.249Z,2.17
2019-05-11T01:37:32.091Z,1.50
2019-05-11T01:40:00.861Z,1.80
2019-05-11T01:42:29.701Z,1.60
2019-05-11T01:44:58.495Z,1.52
2019-05-11T01:47:27.240Z,2.33
2019-05-11T01:49:56.049Z,1.52
2019-05-11T01:52:24.768Z,1.60
2019-05-11T01:54:53.606Z,2.00
2019-05-11T01:57:22.424Z,1.90
2019-05-11T01:59:51.368Z,2.00
2019-05-11T02:02:20.141Z,1.40
2019-05-11T02:04:50.542Z,1.40
2019-05-11T02:07:19.794Z,2.17
2019-05-11T02:09:48.602Z,2.05
2019-05-11T02:12:17.478Z,2.17
2019-05-11T02:14:46.208Z,1.80
2019-05-11T02:17:14.934Z,1.52
2019-05-11T02:19:44.019Z,1.35
2019-05-11T02:22:12.808Z,1.90
2019-05-11T02:24:41.612Z,1.30
2019-05-11T02:27:10.450Z,1.30
2019-05-11T02:29:41.456Z,1.65
2019-05-11T02:32:09.813Z,1.98
2019-05-11T02:34:39.272Z,2.25
2019-05-11T02:37:08.089Z,1.85
2019-05-11T02:39:36.869Z,1.52
2019-05-11T02:42:05.718Z,2.08
2019-05-11T02:44:34.532Z,1.42
2019-05-11T02:47:03.512Z,1.77
2019-05-11T02:49:32.497Z,1.72
2019-05-11T02:52:01.516Z,1.62
2019-05-11T02:54:31.077Z,1.37
2019-05-11T02:56:59.871Z,1.52
2019-05-11T02:59:29.986Z,1.10
2019-05-11T03:01:59.062Z,1.40
2019-05-11T03:04:27.907Z,1.30
2019-05-11T03:06:56.620Z,1.17
2019-05-11T03:09:25.422Z,1.75
2019-05-11T03:11:56.266Z,1.20
2019-05-11T03:14:24.683Z,1.50
2019-05-11T03:17:11.490Z,1.10
2019-05-11T03:19:40.503Z,1.12
2019-05-11T03:22:09.322Z,1.42
2019-05-11T03:24:38.625Z,1.40
2019-05-11T03:27:07.410Z,2.10
2019-05-11T03:29:36.320Z,2.22
2019-05-11T03:32:05.141Z,1.65
2019-05-11T03:34:33.966Z,1.80
2019-05-11T03:37:02.791Z,1.72
2019-05-11T03:39:31.737Z,1.27
2019-05-11T03:42:13.786Z,1.60
2019-05-11T03:44:30.885Z,1.40
2019-05-11T03:47:00.160Z,1.25
2019-05-11T03:49:28.939Z,1.75
2019-05-11T03:51:57.683Z,1.62
2019-05-11T03:54:26.447Z,1.40
2019-05-11T03:56:55.438Z,1.15
2019-05-11T03:59:24.240Z,1.70
2019-05-11T04:01:53.083Z,1.80
2019-05-11T04:04:21.900Z,1.87
2019-05-11T04:06:50.627Z,1.45
2019-05-11T04:09:19.421Z,1.60
2019-05-11T04:11:48.248Z,1.55
2019-05-11T04:14:16.970Z,1.70
2019-05-11T04:16:45.731Z,1.70
2019-05-11T04:19:14.738Z,1.30
2019-05-11T04:21:43.456Z,1.50
2019-05-11T04:24:12.218Z,1.50
2019-05-11T04:26:41.025Z,1.30
2019-05-11T04:29:09.832Z,1.47
2019-05-11T04:31:38.776Z,1.45
2019-05-11T04:34:07.507Z,1.70
2019-05-11T04:36:36.305Z,1.57
2019-05-11T04:39:06.986Z,1.50
2019-05-11T04:41:35.887Z,1.82
2019-05-11T04:44:04.703Z,1.65
2019-05-11T04:46:33.537Z,1.60
2019-05-11T04:49:02.337Z,2.40
2019-05-11T04:51:31.123Z,1.72
2019-05-11T04:54:00.014Z,1.80
2019-05-11T04:56:28.844Z,1.80
2019-05-11T04:58:57.626Z,1.20
2019-05-11T05:01:26.419Z,1.40
2019-05-11T05:03:57.749Z,2.10
2019-05-11T05:06:25.965Z,1.50
2019-05-11T05:08:58.190Z,2.00
2019-05-11T05:11:25.195Z,1.60
2019-05-11T05:13:53.973Z,2.15
2019-05-11T05:16:22.801Z,1.40
2019-05-11T05:18:51.541Z,1.50
2019-05-11T05:21:20.282Z,1.75
2019-05-11T05:23:49.182Z,1.20
2019-05-11T05:26:17.993Z,1.95
2019-05-11T05:28:46.980Z,1.90
2019-05-11T05:31:15.817Z,1.45
2019-05-11T05:33:44.612Z,1.40
2019-05-11T05:36:13.428Z,2.08
2019-05-11T05:38:42.280Z,2.30
2019-05-11T05:41:11.206Z,1.67
2019-05-11T05:43:39.972Z,1.70
2019-05-11T05:46:08.812Z,1.55
2019-05-11T05:48:37.615Z,1.30
2019-05-11T05:51:06.571Z,1.52
2019-05-11T05:53:35.360Z,1.60
2019-05-11T05:56:04.193Z,1.22
2019-05-11T05:58:32.962Z,1.30
2019-05-11T06:01:02.027Z,1.25
2019-05-11T06:03:30.828Z,1.27
2019-05-11T06:05:59.556Z,1.10
2019-05-11T06:08:28.396Z,1.40
2019-05-11T06:10:57.209Z,1.30
2019-05-11T06:13:42.759Z,1.10
2019-05-11T06:15:56.373Z,0.80
2019-05-11T06:18:25.194Z,1.07
2019-05-11T06:20:54.129Z,1.00
2019-05-11T06:23:22.854Z,0.82
2019-05-11T06:25:51.626Z,0.80
2019-05-11T06:28:21.415Z,0.90
2019-05-11T06:30:50.174Z,1.10
2019-05-11T06:33:19.072Z,1.50
2019-05-11T06:35:47.966Z,0.98
2019-05-11T06:38:16.771Z,0.95
2019-05-11T06:40:45.573Z,1.20
2019-05-11T06:43:14.526Z,0.90
2019-05-11T06:45:43.651Z,0.85
2019-05-11T06:48:12.459Z,0.95
2019-05-11T06:50:41.542Z,1.12
2019-05-11T06:53:10.287Z,0.88
2019-05-11T06:55:39.096Z,0.70
2019-05-11T06:58:07.872Z,1.10
2019-05-11T07:00:36.858Z,0.78
2019-05-11T07:03:05.582Z,0.90
2019-05-11T07:05:34.416Z,0.80
2019-05-11T07:08:03.203Z,0.75
2019-05-11T07:10:32.174Z,0.72
2019-05-11T07:13:01.016Z,0.80
2019-05-11T07:15:29.853Z,0.90
2019-05-11T07:17:58.670Z,0.72
2019-05-11T07:20:27.485Z,0.62
2019-05-11T07:22:56.287Z,0.70
2019-05-11T07:25:25.134Z,0.68
2019-05-11T07:27:53.942Z,0.70
2019-05-11T07:30:22.906Z,0.70
2019-05-11T07:32:51.670Z,0.50
2019-05-11T07:35:20.408Z,0.90
2019-05-11T07:37:49.119Z,0.70
2019-05-11T07:40:19.015Z,0.60
2019-05-11T07:42:48.538Z,0.60
2019-05-11T07:45:18.040Z,0.55
2019-05-11T07:47:48.564Z,0.78
2019-05-11T07:50:18.647Z,1.27
2019-05-11T07:52:48.265Z,1.02
2019-05-11T07:55:19.069Z,0.68
2019-05-11T07:57:48.357Z,0.60
2019-05-11T08:00:18.655Z,0.50
2019-05-11T08:02:48.086Z,0.78
2019-05-11T08:05:17.978Z,0.47
2019-05-11T08:07:48.211Z,0.70
2019-05-11T08:10:19.146Z,0.70
2019-05-11T08:12:48.249Z,0.90
2019-05-11T08:15:18.459Z,0.60
2019-05-11T08:17:48.728Z,0.50
2019-05-11T08:20:18.672Z,0.90
2019-05-11T08:22:48.322Z,0.93
2019-05-11T08:25:18.200Z,0.70
2019-05-11T08:27:48.466Z,0.70
2019-05-11T08:30:18.872Z,0.70
2019-05-11T08:32:49.298Z,0.70
2019-05-11T08:35:18.762Z,0.60
2019-05-11T08:37:47.998Z,0.60
2019-05-11T08:40:19.170Z,0.40
2019-05-11T08:42:48.319Z,0.82
2019-05-11T08:45:24.173Z,0.60
2019-05-11T08:47:48.496Z,0.80
2019-05-11T08:50:19.236Z,0.65
2019-05-11T08:52:48.115Z,0.65
2019-05-11T08:55:19.023Z,0.60
2019-05-11T08:57:48.111Z,0.60
2019-05-11T09:00:18.294Z,0.50
2019-05-11T09:02:50.415Z,0.60
2019-05-11T09:05:18.681Z,0.50
2019-05-11T09:07:48.481Z,0.50
2019-05-11T09:10:18.567Z,0.60
2019-05-11T09:12:48.855Z,0.70
2019-05-11T09:15:32.773Z,0.50
2019-05-11T09:17:48.853Z,0.37
2019-05-11T09:20:18.151Z,0.50
2019-05-11T09:22:48.478Z,0.40
2019-05-11T09:25:18.284Z,0.40
2019-05-11T09:27:48.222Z,0.28
2019-05-11T09:30:18.375Z,0.60
2019-05-11T09:32:47.917Z,0.57
2019-05-11T09:35:18.978Z,0.42
2019-05-11T09:37:48.457Z,0.40
2019-05-11T09:40:18.893Z,0.47
2019-05-11T09:42:48.039Z,0.60
2019-05-11T09:45:18.642Z,0.50
2019-05-11T09:47:48.029Z,0.50
2019-05-11T09:50:18.578Z,0.50
2019-05-11T09:52:48.958Z,0.50
2019-05-11T09:55:19.005Z,0.60
2019-05-11T09:57:48.790Z,0.53
2019-05-11T10:00:19.483Z,0.50
2019-05-11T10:02:48.910Z,0.50
2019-05-11T10:05:18.855Z,0.40
2019-05-11T10:07:48.511Z,0.68
2019-05-11T10:10:18.997Z,0.70
2019-05-11T10:12:48.960Z,0.80
2019-05-11T10:15:19.087Z,0.50
2019-05-11T10:17:48.386Z,0.53
2019-05-11T10:20:18.125Z,0.60
2019-05-11T10:22:48.690Z,0.47
2019-05-11T10:25:18.440Z,0.53
2019-05-11T10:27:48.914Z,0.50
2019-05-11T10:30:21.689Z,1.12
2019-05-11T10:32:50.515Z,0.60
2019-05-11T10:35:19.259Z,0.98
2019-05-11T10:37:48.452Z,0.53
2019-05-11T10:40:18.992Z,2.17
2019-05-11T10:42:48.542Z,0.95
2019-05-11T10:45:18.110Z,0.65
2019-05-11T10:47:49.000Z,0.62
2019-05-11T10:50:18.739Z,0.57
2019-05-11T10:52:48.502Z,0.50
2019-05-11T10:55:19.577Z,0.60
2019-05-11T10:57:48.871Z,0.50
2019-05-11T11:00:19.823Z,0.57
2019-05-11T11:02:48.713Z,0.35
2019-05-11T11:05:18.776Z,0.50
2019-05-11T11:07:48.792Z,0.57
2019-05-11T11:10:18.333Z,0.40
2019-05-11T11:12:48.954Z,0.60
2019-05-11T11:15:21.807Z,0.60
2019-05-11T11:17:50.557Z,0.50
2019-05-11T11:20:19.531Z,0.55
2019-05-11T11:22:48.560Z,0.50
2019-05-11T11:25:18.117Z,0.50
2019-05-11T11:27:48.656Z,0.47
2019-05-11T11:30:18.296Z,0.33
2019-05-11T11:32:48.271Z,0.40
2019-05-11T11:35:18.695Z,0.47
2019-05-11T11:37:47.983Z,0.50
2019-05-11T11:40:17.867Z,0.60
2019-05-11T11:42:47.823Z,0.60
2019-05-11T11:45:18.296Z,0.53
2019-05-11T11:47:49.299Z,0.70
2019-05-11T11:50:18.232Z,0.47
2019-05-11T11:52:47.748Z,0.65
2019-05-11T11:55:18.558Z,0.40
2019-05-11T11:57:49.683Z,0.50
2019-05-11T12:00:21.042Z,0.50
2019-05-11T12:02:51.722Z,0.55
2019-05-11T12:05:20.488Z,0.62
2019-05-11T12:07:49.339Z,0.37
2019-05-11T12:10:19.773Z,0.60
2019-05-11T12:12:48.512Z,0.40
2019-05-11T12:15:17.897Z,0.40
2019-05-11T12:17:48.290Z,0.40
2019-05-11T12:20:18.155Z,0.50
2019-05-11T12:22:47.723Z,0.50
2019-05-11T12:25:18.577Z,0.50
2019-05-11T12:27:49.068Z,0.30
2019-05-11T12:30:17.907Z,0.30
2019-05-11T12:32:51.787Z,0.50
2019-05-11T12:35:20.624Z,0.50
2019-05-11T12:37:49.422Z,0.62
2019-05-11T12:40:19.718Z,0.80
2019-05-11T12:42:49.029Z,0.82
2019-05-11T12:45:19.746Z,0.53
2019-05-11T12:47:48.534Z,0.55
2019-05-11T12:50:19.162Z,0.40
2019-05-11T12:52:47.973Z,0.47
2019-05-11T12:55:17.971Z,1.87
2019-05-11T12:57:47.772Z,0.93
2019-05-11T13:00:19.134Z,0.90
2019-05-11T13:02:48.450Z,0.60
2019-05-11T13:05:18.134Z,0.65
2019-05-11T13:07:48.116Z,0.82
2019-05-11T13:10:18.225Z,0.60
2019-05-11T13:12:48.983Z,0.70
2019-05-11T13:15:17.649Z,0.62
2019-05-11T13:17:48.875Z,0.57
2019-05-11T13:20:18.093Z,0.50
2019-05-11T13:22:48.897Z,0.60
2019-05-11T13:25:17.773Z,0.50
2019-05-11T13:27:48.932Z,0.40
2019-05-11T13:30:18.364Z,0.40
2019-05-11T13:32:49.072Z,0.50
2019-05-11T13:35:18.225Z,0.40
2019-05-11T13:37:48.672Z,0.42
2019-05-11T13:40:18.762Z,0.40
2019-05-11T13:42:49.397Z,0.57
2019-05-11T13:45:18.202Z,0.60
2019-05-11T13:47:54.419Z,0.50
2019-05-11T13:50:19.518Z,0.80
2019-05-11T13:52:48.371Z,0.40
2019-05-11T13:55:18.267Z,0.50
2019-05-11T13:57:48.564Z,0.40
2019-05-11T14:00:19.377Z,0.50
2019-05-11T14:02:48.666Z,0.60
2019-05-11T14:05:18.150Z,0.45
2019-05-11T14:07:48.362Z,0.30
2019-05-11T14:10:18.296Z,0.57
2019-05-11T14:12:47.764Z,0.65
2019-05-11T14:15:18.847Z,0.72
2019-05-11T14:17:48.683Z,0.30
2019-05-11T14:20:21.051Z,0.47
2019-05-11T14:22:49.862Z,0.40
2019-05-11T14:25:18.905Z,0.50
2019-05-11T14:27:48.125Z,0.50
2019-05-11T14:30:20.154Z,0.53
2019-05-11T14:32:49.042Z,0.40
2019-05-11T14:35:18.823Z,0.50
2019-05-11T14:37:48.660Z,0.45
2019-05-11T14:40:20.951Z,0.62
2019-05-11T14:42:52.247Z,0.50
2019-05-11T14:45:21.203Z,0.60
2019-05-11T14:47:49.958Z,0.70
2019-05-11T14:50:19.283Z,0.90
2019-05-11T14:52:49.095Z,0.70
2019-05-11T14:55:18.525Z,0.45
2019-05-11T14:57:48.630Z,0.70
2019-05-11T15:00:19.428Z,0.90
2019-05-11T15:02:50.070Z,0.90
2019-05-11T15:05:20.600Z,0.82
2019-05-11T15:07:58.630Z,0.57
2019-05-11T15:10:27.896Z,0.45
2019-05-11T15:12:59.076Z,0.50
2019-05-11T15:15:28.009Z,0.95
2019-05-11T15:17:58.319Z,0.70
2019-05-11T15:20:30.443Z,0.42
2019-05-11T15:22:59.478Z,0.55
2019-05-11T15:25:31.468Z,0.40
2019-05-11T15:28:05.787Z,0.47
2019-05-11T15:30:34.846Z,0.60
2019-05-11T15:33:03.736Z,0.53
2019-05-11T15:35:33.153Z,0.80
2019-05-11T15:38:02.010Z,1.07
2019-05-11T15:40:30.943Z,0.98
2019-05-11T15:42:59.868Z,1.20
2019-05-11T15:45:31.736Z,0.93
2019-05-11T15:48:02.105Z,1.05
2019-05-11T15:50:31.484Z,1.02
2019-05-11T15:53:03.162Z,0.70
2019-05-11T15:55:32.136Z,1.30
2019-05-11T15:58:03.959Z,0.72
2019-05-11T16:00:33.284Z,0.98
2019-05-11T16:03:02.160Z,1.07
2019-05-11T16:05:33.818Z,0.53
2019-05-11T16:08:02.745Z,0.80
2019-05-11T16:10:38.436Z,1.10
2019-05-11T16:13:05.237Z,0.80
2019-05-11T16:15:35.578Z,0.60
2019-05-11T16:18:04.923Z,0.60
2019-05-11T16:20:34.945Z,0.70
2019-05-11T16:23:03.971Z,1.00
2019-05-11T16:25:41.078Z,0.90
2019-05-11T16:28:10.581Z,0.80
2019-05-11T16:30:39.938Z,1.20
2019-05-11T16:33:10.431Z,1.20
2019-05-11T16:35:54.388Z,1.40
2019-05-11T16:38:21.587Z,1.00
2019-05-11T16:40:50.787Z,1.40
2019-05-11T16:43:19.645Z,1.00
2019-05-11T16:45:51.166Z,0.70
2019-05-11T16:48:22.011Z,1.10
2019-05-11T16:50:53.061Z,1.30
2019-05-11T16:53:21.919Z,0.98
2019-05-11T16:55:50.831Z,1.57
2019-05-11T16:58:20.115Z,2.00
2019-05-11T17:00:49.345Z,1.40
2019-05-11T17:03:18.208Z,1.20
2019-05-11T17:05:48.443Z,0.80
2019-05-11T17:08:18.763Z,0.53
2019-05-11T17:10:55.759Z,0.65
2019-05-11T17:13:24.496Z,0.98
2019-05-11T17:15:53.491Z,1.25
2019-05-11T17:18:22.384Z,1.12
2019-05-11T17:20:51.717Z,0.93
2019-05-11T17:23:20.599Z,1.15
2019-05-11T17:25:49.530Z,1.17
2019-05-11T17:28:18.501Z,1.70
2019-05-11T17:31:25.494Z,1.75
2019-05-11T17:33:54.223Z,0.80
2019-05-11T17:36:23.154Z,0.98
2019-05-11T17:38:54.110Z,0.75
2019-05-11T17:41:23.190Z,1.20
2019-05-11T17:43:52.047Z,1.12
2019-05-11T17:46:21.009Z,0.90
2019-05-11T17:48:49.879Z,0.90
2019-05-11T17:51:24.205Z,1.00
2019-05-11T17:53:49.811Z,0.85
2019-05-11T17:56:18.678Z,0.93
2019-05-11T17:58:48.349Z,0.90
2019-05-11T18:01:18.609Z,0.90
2019-05-11T18:03:51.053Z,0.75
2019-05-11T18:06:20.375Z,0.60
2019-05-11T18:08:50.057Z,0.95
2019-05-11T18:11:18.867Z,0.60
2019-05-11T18:13:48.334Z,0.85
2019-05-11T18:16:18.691Z,1.25
2019-05-11T18:18:48.730Z,1.55
2019-05-11T18:21:18.806Z,1.10
2019-05-11T18:23:48.391Z,1.07
2019-05-11T18:26:18.081Z,1.02
2019-05-11T18:28:49.808Z,0.98
2019-05-11T18:31:19.407Z,1.10
2019-05-11T18:33:48.961Z,1.00
2019-05-11T18:36:19.490Z,1.27
2019-05-11T18:38:49.000Z,1.22
2019-05-11T18:41:18.596Z,1.50
2019-05-11T18:43:48.330Z,1.15
2019-05-11T18:46:22.183Z,1.20
2019-05-11T18:48:51.619Z,1.40
2019-05-11T18:51:21.224Z,0.90
2019-05-11T18:53:50.903Z,0.60
2019-05-11T18:56:19.891Z,0.70
2019-05-11T18:58:48.808Z,0.80
2019-05-11T19:01:18.365Z,0.90
2019-05-11T19:03:48.406Z,1.22
2019-05-11T19:06:21.059Z,1.17
2019-05-11T19:08:55.419Z,1.35
2019-05-11T19:11:28.903Z,1.07
2019-05-11T19:13:58.183Z,0.60
2019-05-11T19:16:28.766Z,0.70
2019-05-11T19:18:59.150Z,0.90
2019-05-11T19:21:29.749Z,0.82
2019-05-11T19:24:00.608Z,0.90
2019-05-11T19:26:29.995Z,0.90
2019-05-11T19:29:00.761Z,0.90
2019-05-11T19:31:30.524Z,0.50
2019-05-11T19:33:59.890Z,1.00
2019-05-11T19:36:29.630Z,1.07
2019-05-11T19:38:59.455Z,0.80
2019-05-11T19:41:30.123Z,0.98
2019-05-11T19:43:59.672Z,1.20
2019-05-11T19:46:28.483Z,1.02
2019-05-11T19:48:58.229Z,1.05
2019-05-11T19:51:29.113Z,0.93
2019-05-11T19:53:58.750Z,0.70
2019-05-11T19:56:29.005Z,0.88
2019-05-11T19:59:03.686Z,1.02
2019-05-11T20:01:34.078Z,0.88
2019-05-11T20:04:03.487Z,0.60
2019-05-11T20:06:33.057Z,1.00
2019-05-11T20:09:02.247Z,0.95
2019-05-11T20:11:32.349Z,0.93
2019-05-11T20:14:02.007Z,0.85
2019-05-11T20:16:32.758Z,0.40
2019-05-11T20:19:03.563Z,1.05
2019-05-11T20:21:34.609Z,0.70
2019-05-11T20:24:04.246Z,0.78
2019-05-11T20:26:34.877Z,1.00
2019-05-11T20:29:07.924Z,1.17
2019-05-11T20:31:37.128Z,1.00
2019-05-11T20:34:08.914Z,1.37
2019-05-11T20:36:38.360Z,1.15
2019-05-11T20:39:10.877Z,1.12
2019-05-11T20:41:40.182Z,1.02
2019-05-11T20:44:11.166Z,1.07
2019-05-11T20:46:40.713Z,0.70
2019-05-11T20:49:13.452Z,0.80
2019-05-11T20:51:45.820Z,0.82
2019-05-11T20:54:14.819Z,0.82
2019-05-11T20:56:44.123Z,0.70
2019-05-11T20:59:13.407Z,0.90
2019-05-11T21:01:43.087Z,0.90
2019-05-11T21:04:12.497Z,0.90
2019-05-11T21:06:41.776Z,1.30
2019-05-11T21:09:12.846Z,1.40
2019-05-11T21:11:47.830Z,1.17
2019-05-11T21:14:14.832Z,1.80
2019-05-11T21:16:43.607Z,1.37
2019-05-11T21:19:12.546Z,1.27
2019-05-11T21:21:49.801Z,1.42
2019-05-11T21:24:11.820Z,1.32
2019-05-11T21:26:40.555Z,1.30
2019-05-11T21:29:09.512Z,0.95
2019-05-11T21:31:40.785Z,0.90
2019-05-11T21:34:08.767Z,1.70
2019-05-11T21:36:37.958Z,1.40
2019-05-11T21:39:08.581Z,1.10
2019-05-11T21:41:38.634Z,1.20
2019-05-11T21:44:08.305Z,1.00
2019-05-11T21:46:38.763Z,1.00
2019-05-11T21:49:08.128Z,1.20
2019-05-11T21:51:38.141Z,1.70
2019-05-11T21:54:07.165Z,1.40
2019-05-11T21:56:38.024Z,1.50
2019-05-11T21:59:07.958Z,1.50
2019-05-11T22:01:38.514Z,1.45
2019-05-11T22:04:11.065Z,1.22
2019-05-11T22:06:39.240Z,1.40
2019-05-11T22:09:09.412Z,1.47
2019-05-11T22:11:38.289Z,1.17
2019-05-11T22:14:08.324Z,1.50
2019-05-11T22:16:38.772Z,1.70
2019-05-11T22:19:08.856Z,1.70
2019-05-11T22:21:38.166Z,1.00
2019-05-11T22:24:08.629Z,1.70
2019-05-11T22:26:37.949Z,1.57
2019-05-11T22:29:07.876Z,1.60
2019-05-11T22:31:38.596Z,1.37
2019-05-11T22:34:08.931Z,1.40
2019-05-11T22:36:38.551Z,2.05
2019-05-11T22:39:09.046Z,3.40
2019-05-11T22:41:39.664Z,2.90
2019-05-11T22:44:11.070Z,1.55
2019-05-11T22:46:38.891Z,1.82
2019-05-11T22:49:08.499Z,1.65
2019-05-11T22:51:37.460Z,1.80
2019-05-11T22:54:08.035Z,0.98
2019-05-11T22:56:38.018Z,1.05
2019-05-11T22:59:08.295Z,1.90
2019-05-11T23:01:37.819Z,2.00
2019-05-11T23:04:06.808Z,1.20
2019-05-11T23:06:35.573Z,1.35
2019-05-11T23:09:07.932Z,1.07
2019-05-11T23:11:37.957Z,0.95
2019-05-11T23:14:09.849Z,1.30
2019-05-11T23:16:37.632Z,1.27
2019-05-11T23:19:09.528Z,1.75
2019-05-11T23:21:38.888Z,1.65
2019-05-11T23:24:07.685Z,2.22
2019-05-11T23:26:38.567Z,2.15
2019-05-11T23:29:08.147Z,2.30
2019-05-11T23:31:38.250Z,2.05
2019-05-11T23:34:08.340Z,2.47
2019-05-11T23:36:38.306Z,1.40
2019-05-11T23:39:09.130Z,1.50
2019-05-11T23:41:38.146Z,1.95
2019-05-11T23:44:08.870Z,2.02
2019-05-11T23:46:40.202Z,2.60
2019-05-11T23:49:09.269Z,2.55
2019-05-11T23:51:38.697Z,2.10
2019-05-11T23:54:08.009Z,1.77
2019-05-11T23:56:38.705Z,2.08
2019-05-11T23:59:08.258Z,2.10
